Time;durP1;ratioP1;P1;durP2;ratioP2;P2;SDS_P1;SDS_P2;PMS_P1;PMS_P2;Temp;Humidity;BMP_temperature;BMP_pressure;BME280_temperature;BME280_humidity;BME280_pressure;Samples;Min_cycle;Max_cycle;Signal;HPM_P1;HPM_P2
2021/08/12 02:47:35;;;;;;;;;;;17.50;99.90;;;;;;5;36053091;41309766;-78
2021/08/12 02:50:50;;;;;;;;;;;17.60;99.90;;;;;;5;36015791;41267542;-78
2021/08/12 02:54:08;;;;;;;;;;;17.50;99.90;;;;;;5;36015788;41267197;-78
2021/08/12 02:57:28;;;;;;;;;;;17.40;99.90;;;;;;5;36014476;41266937;-78
2021/08/12 03:00:51;;;;;;;;;;;17.30;99.90;;;;;;5;36013788;42016441;-78
2021/08/12 03:04:05;;;;;;;;;;;17.30;99.90;;;;;;5;36014232;41265481;-78
2021/08/12 03:07:23;;;;;;;;;;;17.30;99.90;;;;;;5;36014971;41270640;-78
2021/08/12 03:10:42;;;;;;;;;;;17.30;99.90;;;;;;5;36013605;41266373;-78
2021/08/12 03:14:02;;;;;;;;;;;17.40;99.90;;;;;;5;36012979;41266312;-78
2021/08/12 03:17:16;;;;;;;;;;;17.40;99.90;;;;;;5;36013694;41265739;-78
2021/08/12 03:20:33;;;;;;;;;;;17.50;99.90;;;;;;5;36014163;41266736;-78
2021/08/12 03:23:53;;;;;;;;;;;17.40;99.90;;;;;;5;36014390;41265749;-78
2021/08/12 03:27:14;;;;;;;;;;;17.40;99.90;;;;;;5;36014545;41266619;-78
2021/08/12 03:30:28;;;;;;;;;;;17.40;99.90;;;;;;5;36013375;41266416;-78
2021/08/12 03:33:46;;;;;;;;;;;17.30;99.90;;;;;;5;36014368;42015165;-79
2021/08/12 03:37:06;;;;;;;;;;;17.20;99.90;;;;;;5;36012809;41266527;-78
2021/08/12 03:40:25;;;;;;;;;;;17.20;99.90;;;;;;5;36014111;41266873;-78
2021/08/12 03:43:39;;;;;;;;;;;17.20;99.90;;;;;;5;36013111;41265327;-85
2021/08/12 03:46:57;;;;;;;;;;;17.20;99.90;;;;;;5;36013100;41266326;-88
2021/08/12 03:50:16;;;;;;;;;;;17.10;99.90;;;;;;5;36012971;41266250;-88
2021/08/12 03:53:36;;;;;;;;;;;17.20;99.90;;;;;;5;36013487;41265630;-89
2021/08/12 03:56:50;;;;;;;;;;;17.10;99.90;;;;;;5;36014596;41266429;-87
2021/08/12 04:00:07;;;;;;;;;;;17.10;99.90;;;;;;5;36016498;41265341;-86
2021/08/12 04:04:07;;;;;;;;;;;17.10;99.90;;;;;;5;36014848;41269599;-87
2021/08/12 04:07:28;;;;;;;;;;;17.10;99.90;;;;;;5;36013396;42016405;-87
2021/08/12 04:10:42;;;;;;;;;;;17.10;99.90;;;;;;5;36014631;41266157;-86
2021/08/12 04:13:59;;;;;;;;;;;17.10;99.90;;;;;;5;36014556;41265593;-86
2021/08/12 04:17:19;;;;;;;;;;;17.00;99.90;;;;;;5;36014547;41265946;-87
2021/08/12 04:20:38;;;;;;;;;;;17.00;99.90;;;;;;5;36015977;41266022;-88
2021/08/12 04:23:52;;;;;;;;;;;17.00;99.90;;;;;;5;36013339;41266842;-86
2021/08/12 04:27:10;;;;;;;;;;;16.90;99.90;;;;;;5;36014706;41267289;-86
2021/08/12 04:30:29;;;;;;;;;;;16.90;99.90;;;;;;5;36014252;41266266;-87
2021/08/12 04:33:49;;;;;;;;;;;16.90;99.90;;;;;;5;36013741;41265453;-86
2021/08/12 04:37:03;;;;;;;;;;;16.90;99.90;;;;;;5;36014345;41266301;-87
2021/08/12 04:40:22;;;;;;;;;;;16.90;99.90;;;;;;5;36013808;42015487;-87
2021/08/12 04:43:41;;;;;;;;;;;16.90;99.90;;;;;;5;36013172;41266821;-85
2021/08/12 04:47:01;;;;;;;;;;;16.90;99.90;;;;;;5;36013848;41266331;-86
2021/08/12 04:50:15;;;;;;;;;;;16.90;99.90;;;;;;5;36013630;41266351;-86
2021/08/12 04:53:32;;;;;;;;;;;17.00;99.90;;;;;;5;36013278;41265810;-87
2021/08/12 04:56:52;;;;;;;;;;;17.10;99.90;;;;;;5;36014342;41265975;-86
2021/08/12 05:00:11;;;;;;;;;;;17.10;99.90;;;;;;5;36013567;41267057;-86
2021/08/12 05:03:26;;;;;;;;;;;17.20;99.90;;;;;;5;36015450;41265968;-87
2021/08/12 05:06:43;;;;;;;;;;;17.30;99.90;;;;;;5;36013438;41266401;-86
2021/08/12 05:10:02;;;;;;;;;;;17.40;99.90;;;;;;5;36014135;41266973;-86
2021/08/12 05:13:23;;;;;;;;;;;17.40;99.90;;;;;;5;36013166;42015297;-87
2021/08/12 05:16:37;;;;;;;;;;;17.50;99.90;;;;;;5;36014465;41266201;-87
2021/08/12 05:19:55;;;;;;;;;;;17.60;99.90;;;;;;5;36013862;41266550;-89
2021/08/12 05:23:15;;;;;;;;;;;17.80;99.90;;;;;;5;36014372;41266491;-87
2021/08/12 05:26:35;;;;;;;;;;;17.80;99.90;;;;;;5;36012893;41266075;-89
2021/08/12 05:29:49;;;;;;;;;;;17.90;99.90;;;;;;5;36014027;41265727;-88
2021/08/12 05:33:06;;;;;;;;;;;18.00;99.90;;;;;;5;36014003;41265528;-87
2021/08/12 05:36:26;;;;;;;;;;;18.10;99.90;;;;;;5;36013363;41266931;-89
2021/08/12 05:39:45;;;;;;;;;;;18.20;99.90;;;;;;5;36013611;41266037;-87
2021/08/12 05:42:59;;;;;;;;;;;18.40;99.90;;;;;;5;36013222;41267149;-87
2021/08/12 05:46:18;;;;;;;;;;;18.50;99.90;;;;;;5;36013277;42016012;-88
2021/08/12 05:49:37;;;;;;;;;;;18.60;99.90;;;;;;5;36013375;41266982;-88
2021/08/12 05:52:57;;;;;;;;;;;18.70;99.90;;;;;;5;36014075;41265300;-87
2021/08/12 05:56:11;;;;;;;;;;;18.80;99.90;;;;;;5;36013318;41266689;-87
2021/08/12 05:59:28;;;;;;;;;;;18.90;99.90;;;;;;5;36012817;41266676;-88
2021/08/12 06:02:49;;;;;;;;;;;19.00;99.90;;;;;;5;36015045;41266486;-87
2021/08/12 06:06:09;;;;;;;;;;;19.10;99.90;;;;;;5;36014501;41266037;-87
2021/08/12 06:09:23;;;;;;;;;;;19.30;99.90;;;;;;5;36014012;41266573;-87
2021/08/12 06:12:40;;;;;;;;;;;19.40;99.90;;;;;;5;36014190;41265341;-87
2021/08/12 06:16:01;;;;;;;;;;;19.50;99.90;;;;;;5;36014650;41265974;-87
2021/08/12 06:19:22;;;;;;;;;;;19.70;99.90;;;;;;5;36013056;42016305;-87
2021/08/12 06:22:36;;;;;;;;;;;19.90;99.90;;;;;;5;36015338;41266513;-87
2021/08/12 06:25:54;;;;;;;;;;;20.10;99.90;;;;;;5;36013514;41268281;-87
2021/08/12 06:29:14;;;;;;;;;;;20.20;99.90;;;;;;5;36013617;41267201;-87
2021/08/12 06:32:34;;;;;;;;;;;20.40;99.90;;;;;;5;36014320;41266071;-87
2021/08/12 06:35:48;;;;;;;;;;;20.60;99.90;;;;;;5;36013582;41266215;-87
2021/08/12 06:39:05;;;;;;;;;;;20.70;99.90;;;;;;5;36013915;41266061;-87
2021/08/12 06:42:24;;;;;;;;;;;20.80;99.90;;;;;;5;36013276;41266690;-87
2021/08/12 06:45:45;;;;;;;;;;;20.90;99.90;;;;;;5;36013782;41266609;-87
2021/08/12 06:48:59;;;;;;;;;;;21.00;99.90;;;;;;5;36014887;41266514;-87
2021/08/12 06:52:17;;;;;;;;;;;21.00;99.90;;;;;;5;36014352;42017208;-86
2021/08/12 06:55:37;;;;;;;;;;;21.10;99.90;;;;;;5;36013632;41266530;-87
2021/08/12 06:58:57;;;;;;;;;;;21.30;99.90;;;;;;5;36013887;41266652;-87
2021/08/12 07:02:11;;;;;;;;;;;21.40;99.90;;;;;;5;36014623;41266017;-87
2021/08/12 07:05:28;;;;;;;;;;;21.60;99.90;;;;;;5;36013233;41266481;-87
2021/08/12 07:08:48;;;;;;;;;;;21.80;99.90;;;;;;5;36013187;41266648;-87
2021/08/12 07:12:07;;;;;;;;;;;22.10;99.90;;;;;;5;36014317;41265696;-87
2021/08/12 07:15:21;;;;;;;;;;;22.50;98.10;;;;;;5;36015455;41265754;-87
2021/08/12 07:18:38;;;;;;;;;;;23.00;96.30;;;;;;5;36014216;41265423;-87
2021/08/12 07:21:58;;;;;;;;;;;23.30;94.90;;;;;;5;36013273;41266261;-87
2021/08/12 07:25:22;;;;;;;;;;;23.70;93.90;;;;;;5;36015882;42015777;-88
2021/08/12 07:28:36;;;;;;;;;;;24.00;93.10;;;;;;5;36014070;41265941;-87
2021/08/12 07:31:54;;;;;;;;;;;24.10;92.10;;;;;;5;36013113;41267117;-87
2021/08/12 07:35:13;;;;;;;;;;;24.10;92.10;;;;;;5;36014000;41266122;-87
2021/08/12 07:38:33;;;;;;;;;;;24.20;91.40;;;;;;5;36013236;41266738;-86
2021/08/12 07:41:48;;;;;;;;;;;24.30;92.90;;;;;;5;36015553;41265457;-87
2021/08/12 07:45:05;;;;;;;;;;;24.30;92.90;;;;;;5;36014136;41266491;-87
2021/08/12 07:48:25;;;;;;;;;;;24.50;92.80;;;;;;5;36013936;41266929;-87
2021/08/12 07:51:44;;;;;;;;;;;24.70;92.40;;;;;;5;36013159;41267003;-88
2021/08/12 07:54:58;;;;;;;;;;;25.00;91.30;;;;;;5;36014048;41266871;-86
2021/08/12 07:58:17;;;;;;;;;;;25.40;90.40;;;;;;5;36013779;42015840;-88
2021/08/12 08:01:37;;;;;;;;;;;26.20;87.60;;;;;;5;36014447;41269219;-88
2021/08/12 08:04:57;;;;;;;;;;;27.70;83.50;;;;;;5;36014651;41265846;-88
2021/08/12 08:08:11;;;;;;;;;;;29.90;74.10;;;;;;5;36014730;41265742;-89
2021/08/12 08:11:28;;;;;;;;;;;32.10;66.90;;;;;;5;36013033;41266592;-89
2021/08/12 08:14:47;;;;;;;;;;;34.20;61.60;;;;;;5;36014020;41265665;-89
2021/08/12 08:18:07;;;;;;;;;;;35.70;56.10;;;;;;5;36015273;41267934;-89
2021/08/12 08:21:21;;;;;;;;;;;37.10;52.90;;;;;;5;36014107;41265961;-89
2021/08/12 08:24:38;;;;;;;;;;;38.00;50.80;;;;;;5;36013516;41266224;-89
2021/08/12 08:27:58;;;;;;;;;;;38.80;48.90;;;;;;5;36014397;41266292;-88
2021/08/12 08:31:18;;;;;;;;;;;40.10;46.40;;;;;;5;36013524;42016411;-89
2021/08/12 08:34:33;;;;;;;;;;;41.30;44.40;;;;;;5;36013795;41265442;-89
2021/08/12 08:37:50;;;;;;;;;;;42.20;43.00;;;;;;5;36014773;41266027;-89
2021/08/12 08:41:09;;;;;;;;;;;42.80;41.90;;;;;;5;36014351;41266667;-88
2021/08/12 08:44:29;;;;;;;;;;;43.50;40.50;;;;;;5;36013101;41265796;-89
2021/08/12 08:47:45;;;;;;;;;;;43.90;39.50;;;;;;5;36013450;41266370;-89
2021/08/12 08:51:02;;;;;;;;;;;44.20;39.70;;;;;;5;36013539;41266274;-89
2021/08/12 08:54:22;;;;;;;;;;;44.70;39.60;;;;;;5;36013856;41266539;-89
2021/08/12 08:57:42;;;;;;;;;;;45.40;38.00;;;;;;5;36014142;41265344;-87
2021/08/12 09:00:57;;;;;;;;;;;45.50;37.90;;;;;;5;36013871;41265568;-88
2021/08/12 09:04:15;;;;;;;;;;;46.20;36.80;;;;;;5;36014610;42016252;-88
2021/08/12 09:07:35;;;;;;;;;;;46.90;36.80;;;;;;5;36013768;41267607;-89
2021/08/12 09:10:54;;;;;;;;;;;47.40;36.10;;;;;;5;36013661;41265817;-88
2021/08/12 09:14:27;;;;;;;;;;;48.00;35.90;;;;;;5;36013678;41265872;-89
2021/08/12 09:17:44;;;;;;;;;;;48.20;35.20;;;;;;5;36014080;41265792;-88
2021/08/12 09:21:18;;;;;;;;;;;48.70;35.10;;;;;;5;36013959;41265951;-88
2021/08/12 09:24:50;;;;;;;;;;;48.90;35.00;;;;;;5;36013406;41266146;-88
2021/08/12 09:28:15;;;;;;;;;;;49.50;33.30;;;;;;5;36014471;41266289;-89
2021/08/12 09:31:33;;;;;;;;;;;49.20;34.10;;;;;;5;36014055;41265198;-89
2021/08/12 09:34:52;;;;;;;;;;;49.30;34.00;;;;;;5;36014116;41265960;-89
2021/08/12 09:38:14;;;;;;;;;;;49.30;34.80;;;;;;5;36013284;42015680;-89
2021/08/12 09:41:40;;;;;;;;;;;50.00;33.70;;;;;;5;36014574;41266221;-89
2021/08/12 09:44:57;;;;;;;;;;;50.30;34.30;;;;;;5;36013804;41265562;-89
2021/08/12 09:48:18;;;;;;;;;;;49.00;34.10;;;;;;5;36014477;41266373;-89
2021/08/12 09:51:38;;;;;;;;;;;49.00;33.90;;;;;;5;36013441;41266114;-89
2021/08/12 09:55:10;;;;;;;;;;;49.30;33.80;;;;;;5;36014094;41265569;-89
2021/08/12 09:58:32;;;;;;;;;;;49.30;33.80;;;;;;5;36013986;41266867;-89
2021/08/12 10:02:10;;;;;;;;;;;49.50;32.90;;;;;;5;36013339;41266210;-89
2021/08/12 10:05:35;;;;;;;;;;;48.30;34.10;;;;;;5;36013600;41266271;-89
2021/08/12 10:08:50;;;;;;;;;;;47.40;34.10;;;;;;5;36014912;41265447;-89
2021/08/12 10:12:09;;;;;;;;;;;45.90;35.10;;;;;;5;36013977;42016775;-89
2021/08/12 10:15:29;;;;;;;;;;;45.20;36.20;;;;;;5;36015326;41267365;-89
2021/08/12 10:18:49;;;;;;;;;;;44.60;36.60;;;;;;5;36014180;41266783;-89
2021/08/12 10:22:03;;;;;;;;;;;44.90;36.00;;;;;;5;36016304;41265621;-89
2021/08/12 10:25:22;;;;;;;;;;;46.20;35.30;;;;;;5;36014113;41266553;-89
2021/08/12 10:28:42;;;;;;;;;;;46.90;34.90;;;;;;5;36014730;41266560;-89
2021/08/12 10:32:02;;;;;;;;;;;47.70;35.00;;;;;;5;36014931;41266523;-89
2021/08/12 10:35:16;;;;;;;;;;;48.80;33.70;;;;;;5;36014324;41268376;-89
2021/08/12 10:38:33;;;;;;;;;;;49.50;33.40;;;;;;5;36014470;41267224;-89
2021/08/12 10:41:53;;;;;;;;;;;49.80;32.80;;;;;;5;36013071;41267202;-90
2021/08/12 10:45:18;;;;;;;;;;;49.20;33.10;;;;;;5;36014202;42016227;-89
2021/08/12 10:48:32;;;;;;;;;;;49.30;33.10;;;;;;5;36013750;41267345;-89
2021/08/12 10:52:02;;;;;;;;;;;49.20;32.80;;;;;;5;36013865;41268042;-89
2021/08/12 10:55:21;;;;;;;;;;;49.40;32.40;;;;;;5;36012933;41266493;-90
2021/08/12 10:58:43;;;;;;;;;;;49.80;32.60;;;;;;5;36015269;41266043;-89
2021/08/12 11:01:57;;;;;;;;;;;50.40;31.30;;;;;;5;36014534;41267292;-89
2021/08/12 11:05:14;;;;;;;;;;;51.10;30.50;;;;;;5;36014197;41267558;-89
2021/08/12 11:08:49;;;;;;;;;;;51.20;29.90;;;;;;5;36014322;41268987;-89
2021/08/12 11:12:08;;;;;;;;;;;51.30;29.90;;;;;;5;36014629;41266266;-89
2021/08/12 11:15:38;;;;;;;;;;;51.10;30.70;;;;;;5;36013750;41266603;-88
2021/08/12 11:18:58;;;;;;;;;;;51.40;30.60;;;;;;5;36013865;42015193;-88
2021/08/12 11:22:36;;;;;;;;;;;51.90;30.80;;;;;;5;36013821;41266486;-89
2021/08/12 11:25:59;;;;;;;;;;;51.70;30.10;;;;;;5;36014079;41266204;-89
2021/08/12 11:29:23;;;;;;;;;;;52.10;29.10;;;;;;5;36014483;41267600;-87
2021/08/12 11:33:00;;;;;;;;;;;51.30;29.80;;;;;;5;36014208;41265824;-88
2021/08/12 11:36:34;;;;;;;;;;;51.50;30.00;;;;;;5;36013670;41266319;-89
2021/08/12 11:39:54;;;;;;;;;;;51.50;29.80;;;;;;5;36014301;41265527;-90
2021/08/12 11:43:09;;;;;;;;;;;51.10;30.70;;;;;;5;36014164;41265679;-88
2021/08/12 11:46:27;;;;;;;;;;;50.90;30.50;;;;;;5;36014261;41265675;-87
2021/08/12 11:49:50;;;;;;;;;;;50.90;30.60;;;;;;5;36013295;41267481;-88
2021/08/12 11:53:13;;;;;;;;;;;50.90;30.50;;;;;;5;36014853;42016021;-88
2021/08/12 11:56:29;;;;;;;;;;;50.80;30.40;;;;;;5;36014106;41266561;-88
2021/08/12 11:59:46;;;;;;;;;;;51.10;30.20;;;;;;5;36013786;41266139;-88
2021/08/12 12:03:06;;;;;;;;;;;50.80;31.40;;;;;;5;36013017;41267766;-89
2021/08/12 12:06:28;;;;;;;;;;;51.10;31.00;;;;;;5;36013260;41265868;-89
2021/08/12 12:09:42;;;;;;;;;;;51.30;31.40;;;;;;5;36015490;41266254;-89
2021/08/12 12:13:09;;;;;;;;;;;51.10;31.10;;;;;;5;36014659;41265218;-88
2021/08/12 12:16:28;;;;;;;;;;;50.80;32.00;;;;;;5;36012972;41267320;-89
2021/08/12 12:20:02;;;;;;;;;;;50.80;32.60;;;;;;5;36013714;41266505;-89
2021/08/12 12:23:23;;;;;;;;;;;50.50;31.50;;;;;;5;36013625;41266403;-88
2021/08/12 12:26:42;;;;;;;;;;;50.50;31.50;;;;;;5;36012857;42017066;-89
2021/08/12 12:30:09;;;;;;;;;;;50.60;31.00;;;;;;5;36014728;41265913;-89
2021/08/12 12:33:28;;;;;;;;;;;50.70;31.70;;;;;;5;36013690;41266559;-91
2021/08/12 12:36:42;;;;;;;;;;;50.70;30.50;;;;;;5;36015296;41267508;-88
2021/08/12 12:40:00;;;;;;;;;;;50.50;31.70;;;;;;5;36013122;41268299;-88
2021/08/12 12:43:26;;;;;;;;;;;50.10;30.70;;;;;;5;36012936;41265797;-88
2021/08/12 12:46:47;;;;;;;;;;;50.00;29.70;;;;;;5;36013517;41266450;-87
2021/08/12 12:50:08;;;;;;;;;;;49.70;30.00;;;;;;5;36013354;41266928;-88
2021/08/12 12:53:42;;;;;;;;;;;49.50;30.00;;;;;;5;36013311;41267151;-88
2021/08/12 12:57:01;;;;;;;;;;;49.30;30.70;;;;;;5;36013023;41266885;-88
2021/08/12 13:00:22;;;;;;;;;;;49.10;30.70;;;;;;5;36013716;42015972;-88
2021/08/12 13:03:43;;;;;;;;;;;48.90;30.50;;;;;;5;36013213;41266035;-88
2021/08/12 13:07:00;;;;;;;;;;;48.70;30.80;;;;;;5;36014168;41267617;-88
2021/08/12 13:10:21;;;;;;;;;;;48.50;31.80;;;;;;5;36013823;41266858;-88
2021/08/12 13:13:41;;;;;;;;;;;48.10;31.80;;;;;;5;36015208;41265874;-88
2021/08/12 13:16:55;;;;;;;;;;;47.90;31.30;;;;;;5;36014616;41265540;-89
2021/08/12 13:20:13;;;;;;;;;;;47.50;31.90;;;;;;5;36014006;41266255;-88
2021/08/12 13:23:33;;;;;;;;;;;47.60;32.10;;;;;;5;36014114;41266375;-89
2021/08/12 13:26:59;;;;;;;;;;;47.40;31.40;;;;;;5;36013709;41265392;-88
2021/08/12 13:30:14;;;;;;;;;;;47.30;31.20;;;;;;5;36013873;41266671;-88
2021/08/12 13:33:33;;;;;;;;;;;46.90;31.00;;;;;;5;36013434;42016127;-88
2021/08/12 13:36:52;;;;;;;;;;;46.70;32.10;;;;;;5;36013613;41267172;-88
2021/08/12 13:40:12;;;;;;;;;;;46.40;31.80;;;;;;5;36015027;41266786;-88
2021/08/12 13:43:26;;;;;;;;;;;46.20;32.50;;;;;;5;36014421;41266958;-88
2021/08/12 13:46:43;;;;;;;;;;;46.10;32.80;;;;;;5;36014584;41266085;-89
2021/08/12 13:50:03;;;;;;;;;;;45.90;33.20;;;;;;5;36015132;41266301;-89
2021/08/12 13:53:23;;;;;;;;;;;45.70;34.10;;;;;;5;36013684;41265238;-86
2021/08/12 13:56:37;;;;;;;;;;;45.50;34.00;;;;;;5;36013382;41266524;-87
2021/08/12 13:59:54;;;;;;;;;;;45.40;34.30;;;;;;5;36014000;41265765;-87
2021/08/12 14:03:19;;;;;;;;;;;45.00;34.80;;;;;;5;36014290;41265837;-87
2021/08/12 14:06:40;;;;;;;;;;;44.70;35.40;;;;;;5;36014767;42015235;-87
2021/08/12 14:09:54;;;;;;;;;;;44.60;34.40;;;;;;5;36014236;41265362;-87
2021/08/12 14:13:11;;;;;;;;;;;44.20;33.90;;;;;;5;36013815;41265628;-87
2021/08/12 14:16:30;;;;;;;;;;;44.20;32.90;;;;;;5;36013196;41266908;-87
2021/08/12 14:19:50;;;;;;;;;;;44.00;33.00;;;;;;5;36013281;41266263;-87
2021/08/12 14:23:04;;;;;;;;;;;43.70;32.80;;;;;;5;36014207;41266719;-88
2021/08/12 14:26:21;;;;;;;;;;;43.30;31.20;;;;;;5;36013624;41266220;-88
2021/08/12 14:29:40;;;;;;;;;;;43.30;31.90;;;;;;5;36013112;41266875;-87
2021/08/12 14:33:00;;;;;;;;;;;43.00;33.90;;;;;;5;36014511;41265275;-87
2021/08/12 14:36:14;;;;;;;;;;;42.80;34.50;;;;;;5;36015560;41265696;-87
2021/08/12 14:39:34;;;;;;;;;;;42.50;31.30;;;;;;5;36014094;42015991;-87
2021/08/12 14:42:54;;;;;;;;;;;42.30;32.80;;;;;;5;36013582;41265818;-87
2021/08/12 14:46:13;;;;;;;;;;;41.80;32.80;;;;;;5;36013877;41265081;-86
2021/08/12 14:49:27;;;;;;;;;;;41.40;31.60;;;;;;5;36014341;41265868;-87
2021/08/12 14:52:45;;;;;;;;;;;41.00;32.90;;;;;;5;36012993;41265966;-86
2021/08/12 14:56:04;;;;;;;;;;;40.80;33.20;;;;;;5;36015095;41266874;-87
2021/08/12 14:59:23;;;;;;;;;;;40.50;31.10;;;;;;5;36013530;41266096;-87
2021/08/12 15:02:38;;;;;;;;;;;40.10;32.50;;;;;;5;36014241;41266006;-86
2021/08/12 15:05:55;;;;;;;;;;;39.80;31.30;;;;;;5;36014202;41269641;-86
2021/08/12 15:09:14;;;;;;;;;;;39.50;32.60;;;;;;5;36013281;41267072;-87
2021/08/12 15:12:38;;;;;;;;;;;39.30;33.80;;;;;;5;36013314;42017926;-87
2021/08/12 15:15:52;;;;;;;;;;;39.20;34.70;;;;;;5;36014538;41266127;-87
2021/08/12 15:19:09;;;;;;;;;;;38.90;34.70;;;;;;5;36012874;41266221;-87
2021/08/12 15:22:29;;;;;;;;;;;38.70;35.10;;;;;;5;36013502;41266479;-86
2021/08/12 15:25:48;;;;;;;;;;;38.50;34.90;;;;;;5;36013996;41265819;-86
2021/08/12 15:29:02;;;;;;;;;;;38.20;34.40;;;;;;5;36013869;41265208;-86
2021/08/12 15:32:20;;;;;;;;;;;38.00;37.10;;;;;;5;36012702;41266763;-86
2021/08/12 15:35:39;;;;;;;;;;;37.80;38.20;;;;;;5;36013247;41264910;-86
2021/08/12 15:38:58;;;;;;;;;;;37.50;38.50;;;;;;5;36013802;41265360;-86
2021/08/12 15:42:12;;;;;;;;;;;37.40;38.70;;;;;;5;36014210;41265774;-87
2021/08/12 15:45:31;;;;;;;;;;;37.10;38.80;;;;;;5;36014161;42015640;-86
2021/08/12 15:48:51;;;;;;;;;;;36.90;39.80;;;;;;5;36013835;41266620;-85
2021/08/12 15:52:10;;;;;;;;;;;36.60;40.00;;;;;;5;36014653;41266999;-87
2021/08/12 15:55:24;;;;;;;;;;;36.30;41.00;;;;;;5;36014006;41265966;-85
2021/08/12 15:58:43;;;;;;;;;;;36.10;41.80;;;;;;5;36013174;41265631;-86
2021/08/12 16:02:02;;;;;;;;;;;35.80;40.60;;;;;;5;36015755;41265936;-86
2021/08/12 16:05:22;;;;;;;;;;;35.60;40.90;;;;;;5;36012844;41266369;-86
2021/08/12 16:08:36;;;;;;;;;;;35.40;41.60;;;;;;5;36014517;41265887;-86
2021/08/12 16:11:53;;;;;;;;;;;35.20;41.70;;;;;;5;36012834;41266060;-86
2021/08/12 16:15:12;;;;;;;;;;;34.90;42.80;;;;;;5;36014007;41267135;-85
2021/08/12 16:18:33;;;;;;;;;;;34.60;44.80;;;;;;5;36014224;42015427;-86
2021/08/12 16:21:47;;;;;;;;;;;34.40;44.30;;;;;;5;36014010;41266009;-85
2021/08/12 16:25:05;;;;;;;;;;;34.30;45.00;;;;;;5;36014233;41266124;-87
2021/08/12 16:28:25;;;;;;;;;;;34.10;44.90;;;;;;5;36013300;41266175;-86
2021/08/12 16:31:44;;;;;;;;;;;33.90;43.90;;;;;;5;36013356;41266188;-86
2021/08/12 16:34:59;;;;;;;;;;;33.70;44.50;;;;;;5;36013847;41265288;-86
2021/08/12 16:38:16;;;;;;;;;;;33.60;47.30;;;;;;5;36014476;41266794;-86
2021/08/12 16:41:35;;;;;;;;;;;33.50;48.90;;;;;;5;36013152;41267100;-86
2021/08/12 16:44:55;;;;;;;;;;;33.20;49.30;;;;;;5;36013401;41266380;-85
2021/08/12 16:48:09;;;;;;;;;;;33.00;49.50;;;;;;5;36014764;41265881;-86
2021/08/12 16:51:27;;;;;;;;;;;32.80;50.10;;;;;;5;36013381;42015999;-86
2021/08/12 16:54:47;;;;;;;;;;;32.70;51.10;;;;;;5;36015293;41266026;-86
2021/08/12 16:58:08;;;;;;;;;;;32.40;50.90;;;;;;5;36013760;41265351;-86
2021/08/12 17:01:22;;;;;;;;;;;32.20;49.90;;;;;;5;36013561;41265184;-85
2021/08/12 17:04:39;;;;;;;;;;;32.00;50.60;;;;;;5;36013672;41265693;-86
2021/08/12 17:07:58;;;;;;;;;;;31.80;50.40;;;;;;5;36014458;41265832;-86
2021/08/12 17:11:18;;;;;;;;;;;31.70;51.80;;;;;;5;36013806;41265551;-86
2021/08/12 17:14:32;;;;;;;;;;;31.50;52.00;;;;;;5;36015336;41266351;-86
2021/08/12 17:17:49;;;;;;;;;;;31.40;51.30;;;;;;5;36014517;41265652;-87
2021/08/12 17:21:09;;;;;;;;;;;31.20;53.70;;;;;;5;36014308;41266218;-86
2021/08/12 17:24:29;;;;;;;;;;;31.00;53.80;;;;;;5;36014297;42015096;-85
2021/08/12 17:27:44;;;;;;;;;;;30.80;54.20;;;;;;5;36014632;41265808;-85
2021/08/12 17:31:01;;;;;;;;;;;30.60;54.80;;;;;;5;36015325;41265974;-86
2021/08/12 17:34:20;;;;;;;;;;;30.40;55.80;;;;;;5;36014141;41265538;-86
2021/08/12 17:37:40;;;;;;;;;;;30.10;55.40;;;;;;5;36015102;41265892;-86
2021/08/12 17:40:54;;;;;;;;;;;29.80;54.20;;;;;;5;36014609;41265316;-86
2021/08/12 17:44:11;;;;;;;;;;;29.50;56.10;;;;;;5;36013013;41266869;-85
2021/08/12 17:47:30;;;;;;;;;;;29.30;54.20;;;;;;5;36014015;41266064;-85
2021/08/12 17:50:52;;;;;;;;;;;29.00;53.90;;;;;;5;36012976;41266830;-86
2021/08/12 17:54:06;;;;;;;;;;;28.70;54.20;;;;;;5;36013959;41265427;-87
2021/08/12 17:57:25;;;;;;;;;;;28.50;54.10;;;;;;5;36013896;42017533;-84
2021/08/12 18:00:44;;;;;;;;;;;28.30;52.50;;;;;;5;36013796;41265299;-86
2021/08/12 18:04:05;;;;;;;;;;;28.10;51.20;;;;;;5;36012795;41265488;-86
2021/08/12 18:07:19;;;;;;;;;;;27.90;51.20;;;;;;5;36013562;41264571;-87
2021/08/12 18:10:37;;;;;;;;;;;27.60;52.50;;;;;;5;36012313;41265864;-87
2021/08/12 18:13:57;;;;;;;;;;;27.40;51.10;;;;;;5;36013756;41265628;-87
2021/08/12 18:17:16;;;;;;;;;;;27.10;52.60;;;;;;5;36013446;41265106;-88
2021/08/12 18:20:31;;;;;;;;;;;26.90;51.40;;;;;;5;36013052;41265539;-87
2021/08/12 18:23:53;;;;;;;;;;;26.60;52.00;;;;;;5;36014120;41265438;-87
2021/08/12 18:27:12;;;;;;;;;;;26.40;53.00;;;;;;5;36014453;41266200;-86
2021/08/12 18:30:34;;;;;;;;;;;26.10;55.60;;;;;;5;36013917;42016939;-87
2021/08/12 18:33:49;;;;;;;;;;;25.90;58.20;;;;;;5;36014378;41267639;-87
2021/08/12 18:37:06;;;;;;;;;;;25.70;58.20;;;;;;5;36014502;41266757;-87
2021/08/12 18:40:25;;;;;;;;;;;25.50;57.60;;;;;;5;36013924;41266898;-87
2021/08/12 18:43:44;;;;;;;;;;;25.20;58.40;;;;;;5;36015792;41267051;-86
2021/08/12 18:46:59;;;;;;;;;;;25.10;60.80;;;;;;5;36014338;41266917;-88
2021/08/12 18:50:17;;;;;;;;;;;24.90;61.50;;;;;;5;36014221;41266524;-89
2021/08/12 18:53:36;;;;;;;;;;;24.70;62.90;;;;;;5;36014060;41266030;-88
2021/08/12 18:56:56;;;;;;;;;;;24.60;65.00;;;;;;5;36014197;41267032;-89
2021/08/12 19:00:10;;;;;;;;;;;24.50;66.10;;;;;;5;36013152;41265908;-89
2021/08/12 19:03:29;;;;;;;;;;;24.40;66.00;;;;;;5;36013339;42016382;-89
2021/08/12 19:06:48;;;;;;;;;;;24.30;66.40;;;;;;5;36013244;41267590;-88
2021/08/12 19:10:08;;;;;;;;;;;24.20;67.10;;;;;;5;36014383;41267050;-88
2021/08/12 19:13:22;;;;;;;;;;;24.10;64.60;;;;;;5;36014203;41267377;-88
2021/08/12 19:16:39;;;;;;;;;;;24.00;65.20;;;;;;5;36013965;41267659;-88
2021/08/12 19:19:59;;;;;;;;;;;23.90;65.40;;;;;;5;36013382;41267281;-88
2021/08/12 19:23:19;;;;;;;;;;;23.80;65.20;;;;;;5;36013484;41267414;-88
2021/08/12 19:26:33;;;;;;;;;;;23.80;64.80;;;;;;5;36013983;41265742;-88
2021/08/12 19:29:51;;;;;;;;;;;23.70;67.70;;;;;;5;36013197;41266883;-88
2021/08/12 19:33:10;;;;;;;;;;;23.60;64.10;;;;;;5;36013696;41265753;-88
2021/08/12 19:36:31;;;;;;;;;;;23.60;66.50;;;;;;5;36014401;42015065;-88
2021/08/12 19:39:46;;;;;;;;;;;23.50;66.10;;;;;;5;36014017;41265573;-88
2021/08/12 19:43:03;;;;;;;;;;;23.40;66.90;;;;;;5;36012959;41266516;-88
2021/08/12 19:46:23;;;;;;;;;;;23.30;66.30;;;;;;5;36013138;41266901;-87
2021/08/12 19:49:43;;;;;;;;;;;23.30;67.80;;;;;;5;36013775;41266377;-88
2021/08/12 19:52:57;;;;;;;;;;;23.30;69.70;;;;;;5;36014427;41267770;-88
2021/08/12 19:56:14;;;;;;;;;;;23.30;67.90;;;;;;5;36012918;41267067;-88
2021/08/12 19:59:38;;;;;;;;;;;23.20;68.70;;;;;;5;36012923;41267109;-88
2021/08/12 20:02:58;;;;;;;;;;;23.20;69.60;;;;;;5;36014169;41265931;-88
2021/08/12 20:06:12;;;;;;;;;;;23.20;71.20;;;;;;5;36013439;41265870;-88
2021/08/12 20:09:31;;;;;;;;;;;23.20;71.00;;;;;;5;36013995;42015822;-88
2021/08/12 20:12:50;;;;;;;;;;;23.10;70.40;;;;;;5;36014742;41267164;-87
2021/08/12 20:16:09;;;;;;;;;;;23.10;70.40;;;;;;5;36013292;41266457;-89
2021/08/12 20:19:24;;;;;;;;;;;23.10;72.20;;;;;;5;36013482;41266132;-89
2021/08/12 20:22:41;;;;;;;;;;;23.00;72.10;;;;;;5;36013172;41266498;-88
2021/08/12 20:26:01;;;;;;;;;;;22.90;73.00;;;;;;5;36013582;41267005;-89
2021/08/12 20:29:20;;;;;;;;;;;22.90;75.10;;;;;;5;36013596;41266771;-89
2021/08/12 20:32:34;;;;;;;;;;;22.80;75.50;;;;;;5;36014008;41266663;-87
2021/08/12 20:35:52;;;;;;;;;;;22.80;76.30;;;;;;5;36014944;41268981;-90
2021/08/12 20:39:11;;;;;;;;;;;22.70;77.50;;;;;;5;36016199;41265085;-89
2021/08/12 20:42:32;;;;;;;;;;;22.60;77.30;;;;;;5;36013035;42017231;-88
2021/08/12 20:45:47;;;;;;;;;;;22.60;78.90;;;;;;5;36014834;41265624;-89
2021/08/12 20:49:05;;;;;;;;;;;22.50;78.80;;;;;;5;36014607;41265817;-88
2021/08/12 20:52:24;;;;;;;;;;;22.60;78.60;;;;;;5;36014178;41265672;-87
2021/08/12 20:55:43;;;;;;;;;;;22.60;79.80;;;;;;5;36013091;41266265;-87
2021/08/12 20:58:57;;;;;;;;;;;22.50;81.00;;;;;;5;36013088;41266150;-87
2021/08/12 21:02:15;;;;;;;;;;;22.50;82.20;;;;;;5;36013876;41265809;-87
2021/08/12 21:05:34;;;;;;;;;;;22.50;82.80;;;;;;5;36013453;41267312;-86
2021/08/12 21:08:59;;;;;;;;;;;22.50;83.40;;;;;;5;36013614;41265269;-87
2021/08/12 21:12:13;;;;;;;;;;;22.50;83.50;;;;;;5;36013289;41266770;-87
2021/08/12 21:15:32;;;;;;;;;;;22.60;83.60;;;;;;5;36012735;42017411;-87